Time;durP1;ratioP1;P1;durP2;ratioP2;P2;SDS_P1;SDS_P2;PMS_P1;PMS_P2;Temp;Humidity;BMP_temperature;BMP_pressure;BME280_temperature;BME280_humidity;BME280_pressure;Samples;Min_cycle;Max_cycle;Signal;HPM_P1;HPM_P2
2022/08/03 00:02:15;;;;;;;1999.90;999.90;;;;;;;18.11;72.77;99321.34;10042900;23;20796;-76
2022/08/03 00:06:17;;;;;;;;;;;;;;;18.05;72.58;99321.56;10048373;23;20504;-76
2022/08/03 00:10:18;;;;;;;1999.90;999.90;;;;;;;17.98;72.21;99312.22;10046863;23;19956;-76
2022/08/03 00:14:20;;;;;;;1999.90;999.90;;;;;;;17.86;72.55;99315.25;10049294;23;20105;-76
2022/08/03 00:18:21;;;;;;;1999.90;999.90;;;;;;;17.80;72.70;99320.75;10067828;23;20058;-76
2022/08/03 00:22:23;;;;;;;1999.90;999.90;;;;;;;17.72;72.97;99321.00;10073715;23;20280;-77
2022/08/03 00:26:25;;;;;;;1999.90;999.90;;;;;;;17.62;72.79;99322.19;10088188;23;20739;-76
2022/08/03 00:30:26;;;;;;;1999.90;999.90;;;;;;;17.45;73.72;99314.03;10044009;23;20018;-76
2022/08/03 00:34:31;;;;;;;1999.90;999.90;;;;;;;17.43;73.85;99314.09;10072563;23;20022;-76
2022/08/03 00:38:53;;;;;;;1999.90;999.90;;;;;;;17.40;74.64;99311.53;10027275;23;20034;-76
2022/08/03 00:42:56;;;;;;;1999.90;999.90;;;;;;;17.40;74.86;99305.44;10048665;23;20053;-76
2022/08/03 00:46:58;;;;;;;1999.90;999.90;;;;;;;17.36;75.28;99316.94;10069544;23;20030;-76
2022/08/03 00:51:01;;;;;;;1999.90;999.90;;;;;;;17.31;74.91;99309.25;10022693;23;20022;-76
2022/08/03 00:55:03;;;;;;;1999.90;999.90;;;;;;;17.28;75.39;99306.72;10072400;23;20018;-76
2022/08/03 00:59:04;;;;;;;1999.90;999.90;;;;;;;17.28;76.11;99309.34;10072705;23;20655;-76
2022/08/03 01:03:08;;;;;;;1999.90;999.90;;;;;;;17.25;76.32;99298.09;10067605;23;20030;-76
2022/08/03 01:07:19;;;;;;;1999.90;999.90;;;;;;;17.14;76.32;99309.78;10073118;23;20018;-76
2022/08/03 01:11:43;;;;;;;1999.90;999.90;;;;;;;17.00;77.14;99309.38;10047406;23;20046;-76
2022/08/03 01:16:11;;;;;;;1999.90;999.90;;;;;;;16.91;77.65;99299.19;10067740;23;20030;-76
2022/08/03 01:20:15;;;;;;;1999.90;999.90;;;;;;;16.91;77.58;99299.19;10070723;23;20023;-75
2022/08/03 01:24:49;;;;;;;1999.90;999.90;;;;;;;16.92;77.47;99291.25;10073299;23;20061;-76
2022/08/03 01:28:57;;;;;;;1999.90;999.90;;;;;;;16.82;77.73;99283.72;10047369;23;20418;-76
2022/08/03 01:33:23;;;;;;;1999.90;999.90;;;;;;;16.68;78.09;99288.53;10017999;23;20775;-76
2022/08/03 01:37:30;;;;;;;1999.90;999.90;;;;;;;16.65;78.47;99286.81;10071262;23;20385;-76
2022/08/03 01:41:34;;;;;;;1999.90;999.90;;;;;;;16.69;78.25;99279.75;10072228;23;20424;-76
2022/08/03 01:45:37;;;;;;;1999.90;999.90;;;;;;;16.71;78.18;99277.97;10068649;23;20334;-76
2022/08/03 01:49:43;;;;;;;1999.90;999.90;;;;;;;16.67;77.99;99274.56;10074173;23;20022;-76
2022/08/03 01:53:48;;;;;;;1999.90;999.90;;;;;;;16.62;78.00;99272.06;10073876;23;20026;-76
2022/08/03 01:57:51;;;;;;;1999.90;999.90;;;;;;;16.62;78.03;99272.06;10073411;23;20025;-76
2022/08/03 02:02:07;;;;;;;1999.90;999.90;;;;;;;16.53;78.38;99271.50;10046267;23;20060;-76
2022/08/03 02:06:32;;;;;;;1999.90;999.90;;;;;;;16.46;78.91;99265.56;10077871;23;20117;-76
2022/08/03 02:10:57;;;;;;;1999.90;999.90;;;;;;;16.44;78.85;99261.28;10052460;23;20113;-76
2022/08/03 02:15:00;;;;;;;1999.90;999.90;;;;;;;16.42;78.84;99268.34;10094902;23;20079;-76
2022/08/03 02:19:05;;;;;;;1999.90;999.90;;;;;;;16.40;79.38;99264.91;10078844;23;20755;-76
2022/08/03 02:23:07;;;;;;;1999.90;999.90;;;;;;;16.28;79.72;99272.22;10076784;23;20089;-76
2022/08/03 02:27:32;;;;;;;1999.90;999.90;;;;;;;16.16;79.73;99269.13;10054978;23;20060;-76
2022/08/03 02:31:36;;;;;;;1999.90;999.90;;;;;;;16.14;80.17;99265.66;10063376;23;20061;-76
2022/08/03 02:35:39;;;;;;;1999.90;999.90;;;;;;;16.10;80.67;99277.13;10079434;23;20034;-76
2022/08/03 02:39:42;;;;;;;1999.90;999.90;;;;;;;16.02;80.69;99274.75;10057012;23;20049;-76
2022/08/03 02:43:49;;;;;;;1999.90;999.90;;;;;;;16.00;81.21;99273.94;10082385;23;20038;-76
2022/08/03 02:48:10;;;;;;;1999.90;999.90;;;;;;;16.00;81.33;99271.31;10054383;23;20026;-76
2022/08/03 02:52:12;;;;;;;1999.90;999.90;;;;;;;16.03;81.29;99268.59;10082827;23;20020;-76
2022/08/03 02:56:18;;;;;;;1999.90;999.90;;;;;;;16.02;81.87;99274.75;10058407;23;20120;-76
2022/08/03 03:00:19;;;;;;;;;;;;;;;15.99;81.85;99266.97;10054135;23;20058;-75
2022/08/03 03:04:30;;;;;;;1999.90;999.90;;;;;;;15.94;82.00;99261.84;10057097;23;19921;-76
2022/08/03 03:08:34;;;;;;;1999.90;999.90;;;;;;;15.93;81.63;99269.75;10054665;23;20025;-76
2022/08/03 03:12:40;;;;;;;1999.90;999.90;;;;;;;15.91;81.44;99263.69;10051182;23;20018;-76
2022/08/03 03:16:44;;;;;;;1999.90;999.90;;;;;;;15.85;81.28;99269.97;10048081;23;20556;-76
2022/08/03 03:20:53;;;;;;;1999.90;999.90;;;;;;;15.84;81.64;99263.03;10053753;23;20452;-76
2022/08/03 03:24:55;;;;;;;1999.90;999.90;;;;;;;15.83;81.77;99269.16;10077300;23;20022;-76
2022/08/03 03:28:57;;;;;;;1999.90;999.90;;;;;;;15.73;81.36;99262.44;10077032;23;20050;-76
2022/08/03 03:32:58;;;;;;;1999.90;999.90;;;;;;;15.69;81.91;99266.91;10049129;23;20022;-76
2022/08/03 03:37:00;;;;;;;1999.90;999.90;;;;;;;15.66;81.97;99260.91;10053415;23;20033;-76
2022/08/03 03:41:04;;;;;;;1999.90;999.90;;;;;;;15.50;82.39;99257.81;10077785;23;20426;-76
2022/08/03 03:45:07;;;;;;;1999.90;999.90;;;;;;;15.51;82.84;99263.91;10048972;23;20061;-75
2022/08/03 03:49:09;;;;;;;1999.90;999.90;;;;;;;15.51;82.58;99256.03;10051292;23;20046;-76
2022/08/03 03:53:12;;;;;;;1999.90;999.90;;;;;;;15.44;83.06;99255.38;10029134;23;20465;-75
2022/08/03 03:57:14;;;;;;;1999.90;999.90;;;;;;;15.37;83.41;99265.09;10052091;23;20026;-75
2022/08/03 04:01:16;;;;;;;1999.90;999.90;;;;;;;15.27;83.69;99268.00;10072735;23;20058;-75
2022/08/03 04:14:25;;;;;;;1999.90;999.90;;;;;;;15.26;83.60;99267.16;10050785;23;19925;-76
2022/08/03 04:18:30;;;;;;;1999.90;999.90;;;;;;;15.24;84.27;99261.06;10070472;23;20027;-76
2022/08/03 04:22:34;;;;;;;1999.90;999.90;;;;;;;15.25;84.27;99262.78;10075797;23;20397;-76
2022/08/03 04:26:39;;;;;;;1999.90;999.90;;;;;;;15.31;83.87;99267.03;10075510;23;20066;-76
2022/08/03 04:30:46;;;;;;;1999.90;999.90;;;;;;;15.32;83.81;99267.00;10071866;23;20335;-76
2022/08/03 04:34:48;;;;;;;1999.90;999.90;;;;;;;15.23;84.13;99269.81;10049567;23;20559;-76
2022/08/03 04:39:13;;;;;;;1999.90;999.90;;;;;;;15.20;84.89;99271.66;10074346;23;20022;-76
2022/08/03 04:43:19;;;;;;;1999.90;999.90;;;;;;;15.30;84.77;99278.41;10075711;23;20045;-76
2022/08/03 04:47:21;;;;;;;1999.90;999.90;;;;;;;15.38;84.70;99279.03;10055359;23;20033;-76
2022/08/03 04:51:24;;;;;;;1999.90;999.90;;;;;;;15.51;84.37;99283.06;10050717;23;20421;-74
2022/08/03 04:55:30;;;;;;;1999.90;999.90;;;;;;;15.69;83.80;99295.72;10049326;23;20018;-76
2022/08/03 04:59:31;;;;;;;1999.90;999.90;;;;;;;15.89;83.22;99295.16;10091572;23;20018;-76
2022/08/03 05:03:33;;;;;;;1999.90;999.90;;;;;;;16.08;82.57;99290.28;10071167;23;20030;-76
2022/08/03 05:07:34;;;;;;;1999.90;999.90;;;;;;;16.31;81.37;99294.84;10075860;23;20261;-76
2022/08/03 05:11:37;;;;;;;1999.90;999.90;;;;;;;16.44;80.42;99296.22;10076273;23;20015;-76
2022/08/03 05:15:40;;;;;;;1999.90;999.90;;;;;;;16.60;79.52;99291.38;10046365;23;20512;-76
2022/08/03 05:19:43;;;;;;;1999.90;999.90;;;;;;;16.92;79.10;99290.41;10049514;23;20070;-76
2022/08/03 05:23:45;;;;;;;1999.90;999.90;;;;;;;17.19;77.63;99293.88;10073838;23;20794;-76
2022/08/03 05:27:46;;;;;;;1999.90;999.90;;;;;;;17.38;76.74;99288.88;10089403;23;20022;-74
2022/08/03 05:31:48;;;;;;;1999.90;999.90;;;;;;;17.75;75.25;99293.75;10068785;23;20256;-74
2022/08/03 05:35:50;;;;;;;1999.90;999.90;;;;;;;17.88;75.36;99299.44;10074065;23;20891;-73
2022/08/03 05:40:04;;;;;;;1999.90;999.90;;;;;;;18.38;73.69;99287.94;10074258;23;20022;-75
2022/08/03 05:44:06;;;;;;;1999.90;999.90;;;;;;;19.33;70.06;99285.03;10048841;23;20033;-74
2022/08/03 05:48:07;;;;;;;1999.90;999.90;;;;;;;19.83;68.07;99282.06;10074132;23;20030;-73
2022/08/03 05:52:09;;;;;;;1999.90;999.90;;;;;;;20.04;67.17;99284.66;10048458;23;20029;-75
2022/08/03 05:56:12;;;;;;;1999.90;999.90;;;;;;;20.19;66.40;99286.63;10075156;23;20041;-75
2022/08/03 06:00:17;;;;;;;1999.90;999.90;;;;;;;20.26;66.35;99288.03;10049074;23;20536;-75
2022/08/03 06:04:19;;;;;;;1999.90;999.90;;;;;;;20.73;64.81;99291.16;10052234;23;20054;-75
2022/08/03 06:08:21;;;;;;;1999.90;999.90;;;;;;;21.13;63.45;99283.94;10077571;23;20018;-75
2022/08/03 06:12:23;;;;;;;1999.90;999.90;;;;;;;21.48;62.45;99284.00;10052533;23;20057;-75
2022/08/03 06:16:24;;;;;;;1999.90;999.90;;;;;;;21.79;61.55;99292.09;10072708;23;20026;-76
2022/08/03 06:20:26;;;;;;;;;;;;;;;21.90;60.61;99289.75;10077828;23;20950;-75
2022/08/03 06:24:27;;;;;;;1999.90;999.90;;;;;;;22.31;59.62;99295.50;10077127;23;20000;-75
2022/08/03 06:28:30;;;;;;;1999.90;999.90;;;;;;;22.74;58.64;99294.94;10077112;23;20023;-75
2022/08/03 06:32:51;;;;;;;1999.90;999.90;;;;;;;23.27;56.71;99301.66;10071267;23;20041;-75
2022/08/03 06:36:53;;;;;;;1999.90;999.90;;;;;;;23.86;55.62;99303.47;10049769;23;20025;-76
2022/08/03 06:41:01;;;;;;;1999.90;999.90;;;;;;;24.44;54.28;99299.09;10075653;23;20102;-76
2022/08/03 06:45:05;;;;;;;1999.90;999.90;;;;;;;24.82;51.90;99297.50;10047335;23;20022;-76
2022/08/03 06:49:06;;;;;;;1999.90;999.90;;;;;;;25.00;51.95;99296.34;10049909;23;20556;-75
2022/08/03 06:53:09;;;;;;;1999.90;999.90;;;;;;;25.54;50.31;99300.75;10050671;23;20029;-76
2022/08/03 06:57:19;;;;;;;;;;;;;;;25.84;48.00;99301.34;10076553;23;20041;-76
2022/08/03 07:01:21;;;;;;;1999.90;999.90;;;;;;;26.13;46.82;99303.81;10049171;23;19953;-75
2022/08/03 07:05:23;;;;;;;1999.90;999.90;;;;;;;26.40;46.45;99296.59;10050066;23;20042;-76
2022/08/03 07:09:25;;;;;;;1999.90;999.90;;;;;;;26.60;45.17;99299.66;10050842;23;20052;-76
2022/08/03 07:13:27;;;;;;;1999.90;999.90;;;;;;;26.86;45.37;99300.41;10073848;23;20029;-75
2022/08/03 07:17:29;;;;;;;;;;;;;;;27.13;45.22;99306.44;10069306;23;20082;-74
2022/08/03 07:21:30;;;;;;;1999.90;999.90;;;;;;;27.35;44.58;99305.69;10073724;23;19917;-76
2022/08/03 07:25:32;;;;;;;1999.90;999.90;;;;;;;27.56;44.23;99308.53;10074608;23;20042;-76
2022/08/03 07:29:35;;;;;;;1999.90;999.90;;;;;;;27.84;43.34;99307.34;10074800;23;20019;-76
2022/08/03 07:33:36;;;;;;;1999.90;999.90;;;;;;;28.03;42.33;99307.59;10043835;23;20033;-76
2022/08/03 07:37:38;;;;;;;1999.90;999.90;;;;;;;28.27;42.01;99300.38;10049663;23;20022;-76
2022/08/03 07:41:39;;;;;;;1999.90;999.90;;;;;;;28.43;40.33;99299.16;10072033;23;20803;-76
2022/08/03 07:45:42;;;;;;;1999.90;999.90;;;;;;;28.71;39.95;99308.47;10044802;23;20033;-76
2022/08/03 07:49:44;;;;;;;1999.90;999.90;;;;;;;28.83;38.67;99294.97;10048684;23;20022;-74
2022/08/03 07:53:45;;;;;;;1999.90;999.90;;;;;;;29.13;39.28;99299.69;10072638;23;20022;-75
2022/08/03 07:58:08;;;;;;;1999.90;999.90;;;;;;;29.40;38.94;99299.19;10049571;23;20084;-76
2022/08/03 08:02:09;;;;;;;1999.90;999.90;;;;;;;29.48;36.83;99296.78;10043924;23;20022;-76
2022/08/03 08:06:11;;;;;;;1999.90;999.90;;;;;;;29.83;37.29;99297.44;10073030;23;20022;-76
2022/08/03 08:10:12;;;;;;;1999.90;999.90;;;;;;;30.15;37.04;99294.69;10073350;23;20018;-76
2022/08/03 08:14:14;;;;;;;1999.90;999.90;;;;;;;30.40;35.88;99288.88;10048379;23;20041;-76
2022/08/03 08:18:17;;;;;;;1999.90;999.90;;;;;;;30.57;35.77;99287.41;10043849;23;20113;-76
2022/08/03 08:22:19;;;;;;;1999.90;999.90;;;;;;;30.82;35.74;99286.94;10073607;23;20109;-76
2022/08/03 08:26:31;;;;;;;1999.90;999.90;;;;;;;30.89;33.42;99287.25;10089436;23;20029;-76
2022/08/03 08:30:32;;;;;;;1999.90;999.90;;;;;;;30.84;33.35;99290.31;10043538;23;20057;-76
2022/08/03 08:34:35;;;;;;;1999.90;999.90;;;;;;;30.73;33.64;99297.63;10073604;23;20022;-76
2022/08/03 08:38:37;;;;;;;1999.90;999.90;;;;;;;30.92;33.94;99293.16;10073460;23;20053;-76
2022/08/03 08:42:40;;;;;;;1999.90;999.90;;;;;;;31.10;31.92;99282.59;10072266;23;20077;-76
2022/08/03 08:47:01;;;;;;;1999.90;999.90;;;;;;;31.44;34.21;99288.44;10044804;23;20026;-76
2022/08/03 08:51:04;;;;;;;1999.90;999.90;;;;;;;31.79;33.56;99284.34;10073692;23;20098;-76
2022/08/03 08:55:07;;;;;;;1999.90;999.90;;;;;;;32.06;33.47;99288.91;10074032;23;20374;-76
2022/08/03 08:59:09;;;;;;;1999.90;999.90;;;;;;;32.27;31.85;99281.53;10049252;23;20370;-76
2022/08/03 09:03:13;;;;;;;1999.90;999.90;;;;;;;32.34;31.43;99284.47;10074093;23;20026;-76
2022/08/03 09:07:29;;;;;;;1999.90;999.90;;;;;;;32.23;29.54;99281.94;10060422;23;20029;-75
2022/08/03 09:11:31;;;;;;;1999.90;999.90;;;;;;;32.17;28.43;99286.06;10071516;23;20767;-75
2022/08/03 09:16:08;;;;;;;1999.90;999.90;;;;;;;31.99;28.88;99280.59;10065970;23;20034;-75
2022/08/03 09:20:10;;;;;;;1999.90;999.90;;;;;;;32.26;29.54;99277.09;10072873;23;20026;-75
2022/08/03 09:24:12;;;;;;;1999.90;999.90;;;;;;;32.51;29.25;99282.84;10071265;23;20744;-75
2022/08/03 09:28:34;;;;;;;1999.90;999.90;;;;;;;32.41;28.92;99270.28;10071056;23;20109;-75
2022/08/03 09:33:03;;;;;;;1999.90;999.90;;;;;;;32.56;30.01;99261.72;10067017;23;20125;-75
2022/08/03 09:37:16;;;;;;;1999.90;999.90;;;;;;;32.80;29.47;99258.47;10090636;23;20022;-75
2022/08/03 09:41:18;;;;;;;1999.90;999.90;;;;;;;33.01;29.42;99254.53;10074965;23;20053;-75
2022/08/03 09:45:27;;;;;;;1999.90;999.90;;;;;;;33.27;29.34;99251.06;10045183;23;20129;-75
2022/08/03 09:49:28;;;;;;;1999.90;999.90;;;;;;;33.36;28.42;99252.84;10075848;23;20406;-75
2022/08/03 09:53:30;;;;;;;1999.90;999.90;;;;;;;33.44;28.52;99249.41;10075394;23;20089;-75
2022/08/03 09:57:31;;;;;;;1999.90;999.90;;;;;;;33.56;28.21;99243.59;10089942;23;20022;-75
2022/08/03 10:01:34;;;;;;;1999.90;999.90;;;;;;;33.53;28.65;99235.81;10044386;23;20041;-75
2022/08/03 10:05:37;;;;;;;1999.90;999.90;;;;;;;33.61;28.58;99235.91;10087880;23;20030;-75
2022/08/03 10:09:52;;;;;;;1999.90;999.90;;;;;;;33.60;28.54;99233.38;10089874;23;20018;-75
2022/08/03 10:13:54;;;;;;;1999.90;999.90;;;;;;;33.60;28.41;99234.22;10090473;23;20022;-75
2022/08/03 10:18:02;;;;;;;1999.90;999.90;;;;;;;33.94;28.41;99238.84;10044531;23;20050;-75
2022/08/03 10:22:25;;;;;;;1999.90;999.90;;;;;;;34.08;27.21;99232.84;10064475;23;20414;-74
2022/08/03 10:26:31;;;;;;;1999.90;999.90;;;;;;;34.15;26.97;99228.50;10024222;23;20065;-75
2022/08/03 10:30:34;;;;;;;1999.90;999.90;;;;;;;34.41;27.60;99225.78;10045863;23;20018;-76
2022/08/03 10:34:41;;;;;;;1999.90;999.90;;;;;;;34.33;24.79;99225.72;10049732;23;20029;-77
2022/08/03 10:38:51;;;;;;;1999.90;999.90;;;;;;;34.09;26.01;99206.72;10076023;23;20034;-76
2022/08/03 10:42:58;;;;;;;1999.90;999.90;;;;;;;34.25;27.47;99206.81;10074840;23;20018;-76
2022/08/03 10:47:00;;;;;;;1999.90;999.90;;;;;;;34.35;25.06;99204.00;10070672;23;20058;-77
2022/08/03 10:51:03;;;;;;;1999.90;999.90;;;;;;;34.10;25.19;99198.47;10071917;23;20023;-77
2022/08/03 10:59:49;;;;;;;1999.90;999.90;;;;;;;34.49;25.95;99196.16;10048119;23;20045;-77
2022/08/03 11:03:53;;;;;;;1999.90;999.90;;;;;;;34.44;25.43;99194.94;10070124;23;20461;-76
2022/08/03 11:08:20;;;;;;;1999.90;999.90;;;;;;;34.64;25.03;99193.63;10072503;23;20093;-77
2022/08/03 11:12:32;;;;;;;1999.90;999.90;;;;;;;34.25;25.07;99179.84;10022248;23;20022;-76
2022/08/03 11:16:36;;;;;;;1999.90;999.90;;;;;;;34.48;25.58;99188.22;10043876;23;20053;-76
2022/08/03 11:20:47;;;;;;;1999.90;999.90;;;;;;;34.86;24.48;99178.72;10073190;23;20310;-77
2022/08/03 11:24:55;;;;;;;1999.90;999.90;;;;;;;34.54;24.27;99180.31;10047459;23;20675;-77
2022/08/03 11:29:29;;;;;;;1999.90;999.90;;;;;;;34.34;24.53;99169.94;10074845;23;20022;-77
2022/08/03 11:33:31;;;;;;;1999.90;999.90;;;;;;;34.65;25.09;99165.69;10043273;23;20430;-76
2022/08/03 11:37:33;;;;;;;1999.90;999.90;;;;;;;34.91;25.69;99168.25;10075436;23;20057;-76
2022/08/03 11:41:34;;;;;;;1999.90;999.90;;;;;;;34.93;24.12;99165.41;10048824;23;20046;-77
2022/08/03 11:46:05;;;;;;;1999.90;999.90;;;;;;;35.17;24.95;99165.38;10068967;23;20033;-77
2022/08/03 11:50:07;;;;;;;1999.90;999.90;;;;;;;35.04;23.38;99157.81;10075226;23;20580;-77
2022/08/03 11:54:10;;;;;;;1999.90;999.90;;;;;;;35.12;24.02;99152.41;10074047;23;20026;-77
2022/08/03 11:58:22;;;;;;;1999.90;999.90;;;;;;;35.38;23.76;99156.81;10090422;23;20088;-76
2022/08/03 12:02:56;;;;;;;1999.90;999.90;;;;;;;35.51;23.32;99154.41;10023012;23;20050;-77
2022/08/03 12:07:02;;;;;;;1999.90;999.90;;;;;;;35.60;23.75;99141.75;10048057;23;20033;-77
2022/08/03 12:11:06;;;;;;;1999.90;999.90;;;;;;;35.66;23.35;99144.59;10048122;23;20022;-77
2022/08/03 12:15:08;;;;;;;1999.90;999.90;;;;;;;35.76;23.10;99148.97;10068551;23;20086;-77
2022/08/03 12:19:10;;;;;;;1999.90;999.90;;;;;;;35.76;23.82;99135.44;10073403;23;20030;-77
2022/08/03 12:23:12;;;;;;;1999.90;999.90;;;;;;;35.79;23.08;99133.25;10073031;23;20026;-77
2022/08/03 12:27:24;;;;;;;1999.90;999.90;;;;;;;35.86;22.92;99131.53;10049267;23;20425;-76
2022/08/03 12:31:26;;;;;;;1999.90;999.90;;;;;;;35.88;22.97;99128.66;10019769;23;20034;-77
2022/08/03 12:35:28;;;;;;;1999.90;999.90;;;;;;;35.85;22.78;99129.03;10072943;23;20033;-77
2022/08/03 12:39:29;;;;;;;1999.90;999.90;;;;;;;35.84;22.43;99124.63;10048701;23;20129;-77
2022/08/03 12:43:31;;;;;;;1999.90;999.90;;;;;;;35.88;22.86;99116.00;10045133;23;20030;-77
2022/08/03 12:47:54;;;;;;;1999.90;999.90;;;;;;;35.84;23.64;99124.63;10073802;23;20117;-77
2022/08/03 12:51:59;;;;;;;1999.90;999.90;;;;;;;35.63;21.91;99128.72;10073010;23;20054;-77
2022/08/03 12:56:07;;;;;;;1999.90;999.90;;;;;;;35.53;22.60;99116.41;10074140;23;20160;-77
2022/08/03 13:00:11;;;;;;;1999.90;999.90;;;;;;;35.36;22.11;99111.06;10069362;23;20433;-77
2022/08/03 13:04:34;;;;;;;1999.90;999.90;;;;;;;35.47;23.40;99109.03;10029613;23;20390;-77
2022/08/03 13:08:36;;;;;;;1999.90;999.90;;;;;;;35.71;23.19;99114.34;10074106;23;20026;-77
2022/08/03 13:12:48;;;;;;;1999.90;999.90;;;;;;;35.76;23.13;99109.28;10090960;23;20014;-77
2022/08/03 13:16:49;;;;;;;1999.90;999.90;;;;;;;35.91;22.43;99103.97;10042689;23;20046;-76
2022/08/03 13:20:51;;;;;;;1999.90;999.90;;;;;;;36.01;22.38;99097.34;10056718;23;20023;-78
2022/08/03 13:24:57;;;;;;;1999.90;999.90;;;;;;;35.89;22.64;99093.34;10052906;23;20022;-76
2022/08/03 13:28:58;;;;;;;1999.90;999.90;;;;;;;36.12;22.48;99089.88;10072849;23;20559;-75
2022/08/03 13:32:59;;;;;;;1999.90;999.90;;;;;;;36.15;22.65;99090.38;10067269;23;20026;-76
2022/08/03 13:37:02;;;;;;;1999.90;999.90;;;;;;;36.08;21.89;99083.97;10045359;23;20422;-76
2022/08/03 13:41:10;;;;;;;1999.90;999.90;;;;;;;36.13;22.08;99081.59;10072273;23;20022;-75
2022/08/03 13:45:16;;;;;;;1999.90;999.90;;;;;;;36.21;22.20;99076.13;10046620;23;20481;-75
2022/08/03 13:49:18;;;;;;;1999.90;999.90;;;;;;;36.34;22.28;99075.56;10072030;23;20133;-76
2022/08/03 13:53:19;;;;;;;1999.90;999.90;;;;;;;36.36;22.50;99068.13;10046667;23;20161;-76
2022/08/03 13:57:21;;;;;;;1999.90;999.90;;;;;;;36.40;21.87;99063.19;10073173;23;20642;-76
2022/08/03 14:01:42;;;;;;;1999.90;999.90;;;;;;;36.20;21.39;99060.06;10041915;23;20118;-75
2022/08/03 14:05:56;;;;;;;1999.90;999.90;;;;;;;36.16;22.05;99056.06;10071914;23;20022;-75
2022/08/03 14:09:57;;;;;;;1999.90;999.90;;;;;;;36.15;22.31;99049.81;10087511;23;20621;-75
2022/08/03 14:13:59;;;;;;;1999.90;999.90;;;;;;;36.05;21.73;99041.06;10068809;23;20022;-75
2022/08/03 14:18:01;;;;;;;1999.90;999.90;;;;;;;36.03;22.44;99045.81;10040668;23;20370;-75
2022/08/03 14:22:03;;;;;;;1999.90;999.90;;;;;;;36.01;22.39;99035.19;10070899;23;20018;-76
2022/08/03 14:26:08;;;;;;;1999.90;999.90;;;;;;;36.12;22.48;99031.25;10073666;23;20824;-76
2022/08/03 14:30:10;;;;;;;1999.90;999.90;;;;;;;36.00;21.68;99029.97;10069906;23;20049;-76
2022/08/03 14:34:11;;;;;;;1999.90;999.90;;;;;;;35.99;22.01;99028.28;10072240;23;20050;-77
2022/08/03 14:38:14;;;;;;;1999.90;999.90;;;;;;;35.98;22.56;99016.63;10048341;23;20046;-76
2022/08/03 14:42:15;;;;;;;1999.90;999.90;;;;;;;36.07;22.07;99025.50;10048197;23;20810;-76
2022/08/03 14:46:17;;;;;;;1999.90;999.90;;;;;;;36.01;22.82;99015.41;10042887;23;20856;-76
2022/08/03 14:50:19;;;;;;;1999.90;999.90;;;;;;;35.81;21.34;99022.25;10072598;23;20105;-76
2022/08/03 14:54:40;;;;;;;1999.90;999.90;;;;;;;35.88;22.59;99016.00;10050119;23;20326;-76
2022/08/03 14:58:42;;;;;;;1999.90;999.90;;;;;;;35.95;22.64;99003.47;10048718;23;20030;-76
2022/08/03 15:02:43;;;;;;;1999.90;999.90;;;;;;;36.09;22.72;99001.00;10037413;23;20125;-76
2022/08/03 15:06:45;;;;;;;1999.90;999.90;;;;;;;36.34;21.67;99007.97;10048033;23;20394;-77
2022/08/03 15:10:55;;;;;;;1999.90;999.90;;;;;;;36.27;22.38;98996.16;10048481;23;20118;-76
2022/08/03 15:14:56;;;;;;;1999.90;999.90;;;;;;;36.39;22.00;98986.59;10075673;23;20738;-76
2022/08/03 15:18:59;;;;;;;1999.90;999.90;;;;;;;36.38;21.17;98990.34;10068303;23;20714;-76
2022/08/03 15:23:01;;;;;;;1999.90;999.90;;;;;;;36.37;21.78;98980.53;10048934;23;20033;-76
2022/08/03 15:27:03;;;;;;;1999.90;999.90;;;;;;;36.36;21.00;98980.72;10063374;23;20064;-77
2022/08/03 15:31:07;;;;;;;1999.90;999.90;;;;;;;36.15;21.67;98973.25;10069008;23;20041;-76
2022/08/03 15:35:08;;;;;;;1999.90;999.90;;;;;;;36.28;21.89;98962.69;10072708;23;20489;-76
2022/08/03 15:39:10;;;;;;;1999.90;999.90;;;;;;;36.37;22.23;98961.63;10073941;23;20053;-76
2022/08/03 15:43:11;;;;;;;1999.90;999.90;;;;;;;36.46;21.38;98960.53;10074905;23;20041;-75
2022/08/03 15:47:13;;;;;;;1999.90;999.90;;;;;;;36.53;21.32;98964.16;10044141;23;20057;-75
2022/08/03 15:51:14;;;;;;;1999.90;999.90;;;;;;;36.46;21.66;98963.25;10048726;23;20061;-75
2022/08/03 15:55:16;;;;;;;1999.90;999.90;;;;;;;36.61;21.65;98960.53;10074271;23;20022;-75
2022/08/03 15:59:18;;;;;;;1999.90;999.90;;;;;;;36.71;22.10;98954.88;10048767;23;20026;-75
2022/08/03 16:03:20;;;;;;;1999.90;999.90;;;;;;;36.73;21.85;98953.66;10041892;23;20482;-75
2022/08/03 16:07:41;;;;;;;1999.90;999.90;;;;;;;36.77;22.16;98951.41;10045441;23;20073;-75
2022/08/03 16:12:04;;;;;;;1999.90;999.90;;;;;;;36.83;21.69;98948.03;10073679;23;20028;-75
2022/08/03 16:16:15;;;;;;;1999.90;999.90;;;;;;;36.79;21.68;98950.22;10043227;23;20370;-75
2022/08/03 16:20:16;;;;;;;1999.90;999.90;;;;;;;36.73;21.53;98950.13;10047789;23;20034;-75
2022/08/03 16:24:34;;;;;;;1999.90;999.90;;;;;;;36.56;21.35;98938.63;10048101;23;20458;-75
2022/08/03 16:28:39;;;;;;;1999.90;999.90;;;;;;;36.23;21.58;98940.72;10089192;23;20030;-75
2022/08/03 16:32:42;;;;;;;1999.90;999.90;;;;;;;35.79;21.85;98938.69;10042102;23;20030;-74
2022/08/03 16:36:44;;;;;;;1999.90;999.90;;;;;;;35.39;21.91;98937.06;10072615;23;20022;-75
2022/08/03 16:40:52;;;;;;;1999.90;999.90;;;;;;;35.09;22.44;98939.50;10046026;23;20443;-74
2022/08/03 16:44:53;;;;;;;1999.90;999.90;;;;;;;34.73;23.03;98933.66;10071213;23;20018;-74
2022/08/03 16:48:55;;;;;;;1999.90;999.90;;;;;;;34.42;24.80;98930.00;10017439;23;20037;-74
2022/08/03 16:52:56;;;;;;;1999.90;999.90;;;;;;;34.14;24.23;98927.66;10071475;23;20026;-74
2022/08/03 16:56:58;;;;;;;1999.90;999.90;;;;;;;33.84;24.52;98925.56;10073678;23;20135;-74
2022/08/03 17:01:01;;;;;;;1999.90;999.90;;;;;;;33.59;24.97;98920.13;10043600;23;20066;-74
2022/08/03 17:05:23;;;;;;;1999.90;999.90;;;;;;;33.31;25.30;98926.75;10074195;23;20764;-74
2022/08/03 17:09:33;;;;;;;1999.90;999.90;;;;;;;33.01;26.04;98928.97;10074865;23;20033;-74
2022/08/03 17:13:40;;;;;;;1999.90;999.90;;;;;;;32.78;26.40;98922.44;10073927;23;20033;-74
2022/08/03 17:17:54;;;;;;;1999.90;999.90;;;;;;;32.68;26.22;98927.09;10045418;23;20030;-74
2022/08/03 17:22:09;;;;;;;1999.90;999.90;;;;;;;32.50;26.67;98912.81;10074587;23;20019;-74
2022/08/03 17:26:12;;;;;;;1999.90;999.90;;;;;;;32.38;27.82;98915.78;10048648;23;20037;-74
2022/08/03 17:31:13;;;;;;;;;;;;;;;32.15;28.12;98918.13;10071256;23;20022;-74
2022/08/03 17:34:46;;;;;;;1999.90;999.90;;;;;;;31.91;29.12;98919.72;10071658;23;19931;-74
2022/08/03 17:38:48;;;;;;;1999.90;999.90;;;;;;;31.76;29.48;98916.72;10046382;23;20064;-74
2022/08/03 17:42:53;;;;;;;1999.90;999.90;;;;;;;31.46;30.47;98921.44;10046667;23;20029;-74
2022/08/03 17:46:54;;;;;;;1999.90;999.90;;;;;;;31.32;29.55;98915.72;10066320;23;20050;-74
2022/08/03 17:51:05;;;;;;;1999.90;999.90;;;;;;;31.10;31.28;98923.16;10071909;23;20026;-74
2022/08/03 17:55:10;;;;;;;1999.90;999.90;;;;;;;30.78;31.05;98922.72;10073101;23;20650;-74
2022/08/03 17:59:49;;;;;;;1999.90;999.90;;;;;;;30.55;32.52;98927.56;10076375;23;20101;-75
2022/08/03 18:03:56;;;;;;;;;;;;;;;30.18;33.15;98932.84;10046447;23;20124;-75
2022/08/03 18:08:01;;;;;;;1999.90;999.90;;;;;;;29.96;33.86;98931.22;10073188;23;19921;-75
2022/08/03 18:12:13;;;;;;;1999.90;999.90;;;;;;;29.77;34.49;98938.25;10076032;23;20022;-75
2022/08/03 18:16:29;;;;;;;1999.90;999.90;;;;;;;29.53;34.80;98932.47;10074277;23;20046;-75
2022/08/03 18:20:32;;;;;;;1999.90;999.90;;;;;;;29.29;34.78;98927.47;10049732;23;20085;-75